EVA620 KSFO-KLAX
Flight info
| Callsign | EVA620 |
|---|---|
| Flight time | 0h 50m |
| Altitude | 35000 |
| Route | WESLA5 SUSEY EBAYE BURGL IRNMN2 |
| Aircraft | B77L/H-SDE1E2E3FGHIJ2J3J4J5M1RWXY/LB1D1 |
Departure
| Time | 2026-04-24 00:02 |
|---|---|
| Airport | San Francisco International Airport (KSFO) |
Arrival
| Time | 2026-04-24 00:52 |
|---|---|
| Airport | Los Angeles International Airport (KLAX) |
| Time | Latitude | Longitude | Altitude | Speed | Heading |
|---|---|---|---|---|---|
| 2026-04-23 23:25 | 37.63829 | -122.38950 | 26 ft | 0 kts | 91° |
| 2026-04-23 23:45 | 37.63829 | -122.38960 | 26 ft | 4 kts | 83° |
| 2026-04-23 23:45 | 37.63819 | -122.38980 | 25 ft | 4 kts | 31° |
| 2026-04-23 23:46 | 37.63813 | -122.38984 | 25 ft | 3 kts | 92° |
| 2026-04-23 23:46 | 37.63798 | -122.38969 | 23 ft | 4 kts | 160° |
| 2026-04-23 23:46 | 37.63771 | -122.38967 | 26 ft | 4 kts | 180° |
| 2026-04-23 23:46 | 37.63749 | -122.38965 | 26 ft | 4 kts | 167° |
| 2026-04-23 23:47 | 37.63727 | -122.38947 | 26 ft | 4 kts | 143° |
| 2026-04-23 23:47 | 37.63705 | -122.38928 | 26 ft | 3 kts | 148° |
| 2026-04-23 23:47 | 37.63692 | -122.38918 | 26 ft | 0 kts | 148° |
| 2026-04-23 23:50 | 37.63689 | -122.38916 | 26 ft | 5 kts | 148° |
| 2026-04-23 23:50 | 37.63649 | -122.38885 | 26 ft | 7 kts | 148° |
| 2026-04-23 23:51 | 37.63604 | -122.38850 | 26 ft | 8 kts | 148° |
| 2026-04-23 23:51 | 37.63556 | -122.38816 | 26 ft | 8 kts | 156° |
| 2026-04-23 23:51 | 37.63484 | -122.38837 | 26 ft | 20 kts | 217° |
| 2026-04-23 23:51 | 37.63422 | -122.39002 | 26 ft | 21 kts | 247° |
| 2026-04-23 23:52 | 37.63355 | -122.39150 | 26 ft | 17 kts | 222° |
| 2026-04-23 23:52 | 37.63246 | -122.39154 | 26 ft | 17 kts | 158° |
| 2026-04-23 23:52 | 37.63168 | -122.39198 | 26 ft | 14 kts | 245° |
| 2026-04-23 23:52 | 37.63126 | -122.39308 | 26 ft | 14 kts | 241° |
| 2026-04-23 23:53 | 37.63078 | -122.39416 | 26 ft | 14 kts | 241° |
| 2026-04-23 23:53 | 37.63055 | -122.39535 | 26 ft | 14 kts | 269° |
| 2026-04-23 23:53 | 37.63006 | -122.39638 | 26 ft | 14 kts | 216° |
| 2026-04-23 23:53 | 37.62874 | -122.39663 | 26 ft | 22 kts | 182° |
| 2026-04-23 23:54 | 37.62727 | -122.39629 | 26 ft | 22 kts | 141° |
| 2026-04-23 23:54 | 37.62616 | -122.39514 | 26 ft | 16 kts | 139° |
| 2026-04-23 23:54 | 37.62545 | -122.39400 | 26 ft | 20 kts | 124° |
| 2026-04-23 23:54 | 37.62453 | -122.39189 | 26 ft | 28 kts | 117° |
| 2026-04-23 23:55 | 37.62363 | -122.38975 | 26 ft | 27 kts | 118° |
| 2026-04-23 23:55 | 37.62279 | -122.38775 | 26 ft | 21 kts | 117° |
| 2026-04-23 23:55 | 37.62222 | -122.38638 | 26 ft | 17 kts | 118° |
| 2026-04-23 23:55 | 37.62161 | -122.38493 | 26 ft | 20 kts | 118° |
| 2026-04-23 23:56 | 37.62098 | -122.38341 | 26 ft | 20 kts | 118° |
| 2026-04-23 23:56 | 37.62034 | -122.38188 | 26 ft | 20 kts | 118° |
| 2026-04-23 23:56 | 37.61969 | -122.38035 | 26 ft | 20 kts | 119° |
| 2026-04-23 23:56 | 37.61874 | -122.37914 | 26 ft | 20 kts | 147° |
| 2026-04-23 23:57 | 37.61800 | -122.37774 | 26 ft | 20 kts | 111° |
| 2026-04-23 23:57 | 37.61751 | -122.37615 | 26 ft | 20 kts | 111° |
| 2026-04-23 23:57 | 37.61697 | -122.37457 | 26 ft | 20 kts | 118° |
| 2026-04-23 23:57 | 37.61632 | -122.37304 | 26 ft | 20 kts | 117° |
| 2026-04-23 23:58 | 37.61555 | -122.37118 | 26 ft | 25 kts | 117° |
| 2026-04-23 23:58 | 37.61469 | -122.36926 | 26 ft | 25 kts | 126° |
| 2026-04-23 23:58 | 37.61356 | -122.36757 | 26 ft | 25 kts | 121° |
| 2026-04-23 23:58 | 37.61283 | -122.36580 | 26 ft | 21 kts | 117° |
| 2026-04-23 23:59 | 37.61214 | -122.36418 | 26 ft | 21 kts | 118° |
| 2026-04-23 23:59 | 37.61145 | -122.36258 | 26 ft | 21 kts | 118° |
| 2026-04-23 23:59 | 37.61077 | -122.36096 | 26 ft | 21 kts | 118° |
| 2026-04-23 23:59 | 37.61071 | -122.35936 | 26 ft | 19 kts | 53° |
| 2026-04-24 00:00 | 37.61155 | -122.35867 | 26 ft | 8 kts | 28° |
| 2026-04-24 00:00 | 37.61182 | -122.35869 | 26 ft | 4 kts | 323° |
| 2026-04-24 00:00 | 37.61196 | -122.35898 | 26 ft | 0 kts | 297° |
| 2026-04-24 00:01 | 37.61200 | -122.35907 | 26 ft | 8 kts | 297° |
| 2026-04-24 00:01 | 37.61305 | -122.36159 | 27 ft | 67 kts | 297° |
| 2026-04-24 00:01 | 37.61635 | -122.36945 | 27 ft | 135 kts | 298° |
| 2026-04-24 00:01 | 37.62149 | -122.38171 | 240 ft | 167 kts | 296° |
| 2026-04-24 00:02 | 37.62647 | -122.39404 | 1182 ft | 153 kts | 297° |
| 2026-04-24 00:02 | 37.63190 | -122.40664 | 1742 ft | 172 kts | 298° |
| 2026-04-24 00:02 | 37.63781 | -122.42042 | 2297 ft | 191 kts | 297° |
| 2026-04-24 00:02 | 37.64458 | -122.43625 | 2656 ft | 218 kts | 298° |
| 2026-04-24 00:03 | 37.65242 | -122.45372 | 3224 ft | 234 kts | 298° |
| 2026-04-24 00:03 | 37.66031 | -122.47168 | 4140 ft | 236 kts | 298° |
| 2026-04-24 00:03 | 37.66803 | -122.49027 | 4909 ft | 240 kts | 292° |
| 2026-04-24 00:03 | 37.67000 | -122.51183 | 5180 ft | 270 kts | 257° |
| 2026-04-24 00:04 | 37.66050 | -122.53206 | 6010 ft | 273 kts | 221° |
| 2026-04-24 00:04 | 37.64395 | -122.54354 | 6960 ft | 275 kts | 196° |
| 2026-04-24 00:04 | 37.62504 | -122.54582 | 7766 ft | 278 kts | 170° |
| 2026-04-24 00:04 | 37.60663 | -122.53821 | 8468 ft | 281 kts | 153° |
| 2026-04-24 00:05 | 37.58861 | -122.52771 | 9166 ft | 290 kts | 154° |
| 2026-04-24 00:05 | 37.56995 | -122.51734 | 10003 ft | 295 kts | 154° |
| 2026-04-24 00:05 | 37.55074 | -122.50695 | 10602 ft | 309 kts | 154° |
| 2026-04-24 00:05 | 37.52997 | -122.49584 | 10818 ft | 338 kts | 155° |
| 2026-04-24 00:06 | 37.50775 | -122.48403 | 11085 ft | 363 kts | 155° |
| 2026-04-24 00:06 | 37.48518 | -122.46934 | 11527 ft | 371 kts | 140° |
| 2026-04-24 00:06 | 37.46719 | -122.44617 | 12211 ft | 373 kts | 128° |
| 2026-04-24 00:06 | 37.44990 | -122.42144 | 13190 ft | 379 kts | 130° |
| 2026-04-24 00:07 | 37.43215 | -122.39672 | 14233 ft | 383 kts | 130° |
| 2026-04-24 00:07 | 37.41409 | -122.37184 | 15077 ft | 389 kts | 131° |
| 2026-04-24 00:07 | 37.39554 | -122.34651 | 15905 ft | 396 kts | 132° |
| 2026-04-24 00:07 | 37.37671 | -122.32080 | 16641 ft | 406 kts | 131° |
| 2026-04-24 00:08 | 37.35741 | -122.29452 | 17468 ft | 412 kts | 132° |
| 2026-04-24 00:08 | 37.33767 | -122.26782 | 18217 ft | 420 kts | 133° |
| 2026-04-24 00:08 | 37.31798 | -122.24111 | 18989 ft | 424 kts | 133° |
| 2026-04-24 00:08 | 37.29779 | -122.21383 | 19721 ft | 429 kts | 133° |
| 2026-04-24 00:09 | 37.27731 | -122.18624 | 20505 ft | 433 kts | 134° |
| 2026-04-24 00:09 | 37.25674 | -122.15847 | 21263 ft | 438 kts | 134° |
| 2026-04-24 00:09 | 37.23585 | -122.13021 | 21928 ft | 445 kts | 134° |
| 2026-04-24 00:09 | 37.21467 | -122.10155 | 22639 ft | 450 kts | 134° |
| 2026-04-24 00:10 | 37.19323 | -122.07259 | 23332 ft | 456 kts | 134° |
| 2026-04-24 00:10 | 37.17147 | -122.04330 | 23968 ft | 462 kts | 135° |
| 2026-04-24 00:10 | 37.14946 | -122.01373 | 24532 ft | 467 kts | 135° |
| 2026-04-24 00:10 | 37.12714 | -121.98379 | 25089 ft | 473 kts | 135° |
| 2026-04-24 00:11 | 37.10487 | -121.95392 | 25635 ft | 478 kts | 135° |
| 2026-04-24 00:11 | 37.08206 | -121.92334 | 26193 ft | 483 kts | 135° |
| 2026-04-24 00:11 | 37.05900 | -121.89246 | 26729 ft | 488 kts | 135° |
| 2026-04-24 00:11 | 37.03571 | -121.86126 | 27265 ft | 493 kts | 136° |
| 2026-04-24 00:12 | 37.01218 | -121.82977 | 27797 ft | 498 kts | 136° |
| 2026-04-24 00:12 | 36.98843 | -121.79803 | 28345 ft | 502 kts | 136° |
| 2026-04-24 00:12 | 36.96446 | -121.76603 | 28865 ft | 506 kts | 136° |
| 2026-04-24 00:12 | 36.94025 | -121.73376 | 29377 ft | 511 kts | 136° |
| 2026-04-24 00:13 | 36.91615 | -121.70165 | 29857 ft | 515 kts | 136° |
| 2026-04-24 00:13 | 36.89152 | -121.66886 | 30287 ft | 519 kts | 136° |
| 2026-04-24 00:13 | 36.86681 | -121.63599 | 30798 ft | 520 kts | 136° |
| 2026-04-24 00:13 | 36.84211 | -121.60315 | 31413 ft | 517 kts | 136° |
| 2026-04-24 00:14 | 36.81754 | -121.57049 | 32046 ft | 515 kts | 137° |
| 2026-04-24 00:14 | 36.79298 | -121.53791 | 32655 ft | 513 kts | 137° |
| 2026-04-24 00:14 | 36.76857 | -121.50557 | 33210 ft | 513 kts | 137° |
| 2026-04-24 00:14 | 36.74410 | -121.47318 | 33730 ft | 513 kts | 137° |
| 2026-04-24 00:15 | 36.71997 | -121.44130 | 34231 ft | 512 kts | 137° |
| 2026-04-24 00:15 | 36.69554 | -121.40906 | 34684 ft | 510 kts | 138° |
| 2026-04-24 00:15 | 36.67122 | -121.37699 | 35086 ft | 511 kts | 138° |
| 2026-04-24 00:15 | 36.64667 | -121.34467 | 35090 ft | 516 kts | 138° |
| 2026-04-24 00:16 | 36.59690 | -121.27924 | 35102 ft | 527 kts | 138° |
| 2026-04-24 00:16 | 36.54594 | -121.21231 | 35106 ft | 538 kts | 138° |
| 2026-04-24 00:17 | 36.49456 | -121.14489 | 35079 ft | 541 kts | 138° |
| 2026-04-24 00:17 | 36.44286 | -121.07720 | 35083 ft | 540 kts | 138° |
| 2026-04-24 00:18 | 36.39209 | -121.00823 | 35067 ft | 542 kts | 135° |
| 2026-04-24 00:18 | 36.34333 | -120.93692 | 35080 ft | 542 kts | 134° |
| 2026-04-24 00:19 | 36.29490 | -120.86614 | 35076 ft | 542 kts | 135° |
| 2026-04-24 00:19 | 36.24568 | -120.79538 | 35071 ft | 542 kts | 135° |
| 2026-04-24 00:20 | 36.19638 | -120.72503 | 35063 ft | 541 kts | 135° |
| 2026-04-24 00:20 | 36.14706 | -120.65479 | 35064 ft | 540 kts | 135° |
| 2026-04-24 00:21 | 36.09783 | -120.58478 | 35060 ft | 539 kts | 136° |
| 2026-04-24 00:21 | 36.04902 | -120.51544 | 35057 ft | 537 kts | 136° |
| 2026-04-24 00:22 | 35.99994 | -120.44589 | 35061 ft | 537 kts | 136° |
| 2026-04-24 00:22 | 35.95081 | -120.37641 | 35071 ft | 538 kts | 136° |
| 2026-04-24 00:23 | 35.90152 | -120.30704 | 35055 ft | 537 kts | 138° |
| 2026-04-24 00:23 | 35.84715 | -120.24610 | 35059 ft | 528 kts | 148° |
| 2026-04-24 00:24 | 35.78606 | -120.19740 | 35050 ft | 521 kts | 155° |
| 2026-04-24 00:24 | 35.72382 | -120.15159 | 35048 ft | 521 kts | 155° |
| 2026-04-24 00:25 | 35.66208 | -120.10513 | 35064 ft | 521 kts | 155° |
| 2026-04-24 00:25 | 35.60077 | -120.05880 | 35055 ft | 521 kts | 155° |
| 2026-04-24 00:26 | 35.53905 | -120.01220 | 35039 ft | 520 kts | 155° |
| 2026-04-24 00:26 | 35.47737 | -119.96574 | 35050 ft | 520 kts | 155° |
| 2026-04-24 00:27 | 35.41576 | -119.91942 | 35038 ft | 520 kts | 155° |
| 2026-04-24 00:27 | 35.35453 | -119.87346 | 35030 ft | 519 kts | 155° |
| 2026-04-24 00:28 | 35.29294 | -119.82731 | 35037 ft | 519 kts | 155° |
| 2026-04-24 00:28 | 35.23403 | -119.77646 | 34762 ft | 515 kts | 148° |
| 2026-04-24 00:29 | 35.20581 | -119.74919 | 33873 ft | 517 kts | 147° |
| 2026-04-24 00:29 | 35.17775 | -119.72174 | 32942 ft | 516 kts | 147° |
| 2026-04-24 00:29 | 35.14996 | -119.69489 | 32041 ft | 516 kts | 147° |
| 2026-04-24 00:29 | 35.12162 | -119.66798 | 31061 ft | 516 kts | 147° |
| 2026-04-24 00:30 | 35.09310 | -119.64128 | 30199 ft | 516 kts | 147° |
| 2026-04-24 00:30 | 35.06474 | -119.61491 | 29480 ft | 509 kts | 147° |
| 2026-04-24 00:30 | 35.03668 | -119.58888 | 28771 ft | 503 kts | 147° |
| 2026-04-24 00:30 | 35.00905 | -119.56326 | 28142 ft | 497 kts | 147° |
| 2026-04-24 00:31 | 34.98171 | -119.53790 | 27519 ft | 491 kts | 147° |
| 2026-04-24 00:31 | 34.95465 | -119.51281 | 26891 ft | 486 kts | 147° |
| 2026-04-24 00:31 | 34.92820 | -119.48830 | 26284 ft | 482 kts | 147° |
| 2026-04-24 00:31 | 34.90159 | -119.46379 | 25749 ft | 476 kts | 147° |
| 2026-04-24 00:32 | 34.87513 | -119.43997 | 25288 ft | 470 kts | 148° |
| 2026-04-24 00:32 | 34.84875 | -119.41651 | 24809 ft | 469 kts | 148° |
| 2026-04-24 00:32 | 34.82235 | -119.39307 | 24362 ft | 470 kts | 148° |
| 2026-04-24 00:32 | 34.79605 | -119.36964 | 23920 ft | 467 kts | 148° |
| 2026-04-24 00:33 | 34.76999 | -119.34637 | 23388 ft | 462 kts | 148° |
| 2026-04-24 00:33 | 34.74452 | -119.32360 | 22856 ft | 444 kts | 148° |
| 2026-04-24 00:33 | 34.72055 | -119.30247 | 22471 ft | 421 kts | 148° |
| 2026-04-24 00:33 | 34.69710 | -119.28206 | 21995 ft | 412 kts | 149° |
| 2026-04-24 00:34 | 34.67389 | -119.26189 | 21560 ft | 409 kts | 149° |
| 2026-04-24 00:34 | 34.65085 | -119.24183 | 21145 ft | 406 kts | 149° |
| 2026-04-24 00:34 | 34.62791 | -119.22197 | 20723 ft | 404 kts | 149° |
| 2026-04-24 00:34 | 34.60507 | -119.20230 | 20301 ft | 401 kts | 149° |
| 2026-04-24 00:35 | 34.58241 | -119.18281 | 19890 ft | 399 kts | 149° |
| 2026-04-24 00:35 | 34.55985 | -119.16337 | 19468 ft | 397 kts | 148° |
| 2026-04-24 00:35 | 34.53756 | -119.14377 | 19067 ft | 395 kts | 148° |
| 2026-04-24 00:35 | 34.51576 | -119.12437 | 18661 ft | 393 kts | 148° |
| 2026-04-24 00:36 | 34.49370 | -119.10475 | 18217 ft | 392 kts | 148° |
| 2026-04-24 00:36 | 34.47178 | -119.08531 | 17761 ft | 390 kts | 148° |
| 2026-04-24 00:36 | 34.44989 | -119.06594 | 17337 ft | 387 kts | 148° |
| 2026-04-24 00:36 | 34.42818 | -119.04688 | 16942 ft | 383 kts | 148° |
| 2026-04-24 00:37 | 34.40662 | -119.02823 | 16541 ft | 380 kts | 148° |
| 2026-04-24 00:37 | 34.38519 | -119.00973 | 16147 ft | 376 kts | 148° |
| 2026-04-24 00:37 | 34.36398 | -118.99140 | 15749 ft | 373 kts | 148° |
| 2026-04-24 00:37 | 34.34323 | -118.97344 | 15380 ft | 370 kts | 147° |
| 2026-04-24 00:38 | 34.32249 | -118.95496 | 14999 ft | 370 kts | 146° |
| 2026-04-24 00:38 | 34.30202 | -118.93624 | 14607 ft | 368 kts | 146° |
| 2026-04-24 00:38 | 34.28168 | -118.91765 | 14235 ft | 365 kts | 146° |
| 2026-04-24 00:38 | 34.26144 | -118.89926 | 13857 ft | 361 kts | 146° |
| 2026-04-24 00:39 | 34.24147 | -118.88106 | 13435 ft | 358 kts | 146° |
| 2026-04-24 00:39 | 34.22176 | -118.86292 | 13030 ft | 355 kts | 145° |
| 2026-04-24 00:39 | 34.20223 | -118.84495 | 12631 ft | 351 kts | 145° |
| 2026-04-24 00:39 | 34.18289 | -118.82719 | 12273 ft | 347 kts | 145° |
| 2026-04-24 00:40 | 34.16383 | -118.80962 | 11909 ft | 343 kts | 144° |
| 2026-04-24 00:40 | 34.14590 | -118.79121 | 11738 ft | 333 kts | 140° |
| 2026-04-24 00:40 | 34.12913 | -118.77264 | 11355 ft | 331 kts | 139° |
| 2026-04-24 00:40 | 34.11237 | -118.75391 | 11055 ft | 325 kts | 139° |
| 2026-04-24 00:41 | 34.09579 | -118.73560 | 10694 ft | 323 kts | 140° |
| 2026-04-24 00:41 | 34.07913 | -118.71741 | 10276 ft | 322 kts | 139° |
| 2026-04-24 00:41 | 34.06428 | -118.69782 | 9939 ft | 314 kts | 126° |
| 2026-04-24 00:41 | 34.05228 | -118.67591 | 9527 ft | 313 kts | 122° |
| 2026-04-24 00:42 | 34.04087 | -118.65355 | 9110 ft | 313 kts | 122° |
| 2026-04-24 00:42 | 34.02956 | -118.63124 | 8685 ft | 311 kts | 121° |
| 2026-04-24 00:42 | 34.01843 | -118.60935 | 8267 ft | 310 kts | 121° |
| 2026-04-24 00:42 | 34.00717 | -118.58727 | 7847 ft | 308 kts | 121° |
| 2026-04-24 00:43 | 33.99620 | -118.56596 | 7380 ft | 290 kts | 121° |
| 2026-04-24 00:43 | 33.98576 | -118.54587 | 6934 ft | 275 kts | 121° |
| 2026-04-24 00:43 | 33.97569 | -118.52677 | 6534 ft | 270 kts | 122° |
| 2026-04-24 00:43 | 33.96545 | -118.50750 | 6153 ft | 275 kts | 121° |
| 2026-04-24 00:44 | 33.95498 | -118.48825 | 5736 ft | 274 kts | 121° |
| 2026-04-24 00:44 | 33.94447 | -118.46916 | 5329 ft | 274 kts | 122° |
| 2026-04-24 00:44 | 33.93404 | -118.44998 | 4909 ft | 273 kts | 122° |
| 2026-04-24 00:44 | 33.92392 | -118.43115 | 4497 ft | 272 kts | 121° |
| 2026-04-24 00:45 | 33.91376 | -118.41203 | 4100 ft | 270 kts | 122° |
| 2026-04-24 00:45 | 33.90400 | -118.39323 | 3984 ft | 258 kts | 121° |
| 2026-04-24 00:45 | 33.89465 | -118.37505 | 3987 ft | 253 kts | 121° |
| 2026-04-24 00:45 | 33.88569 | -118.35747 | 3976 ft | 238 kts | 118° |
| 2026-04-24 00:46 | 33.88122 | -118.33894 | 3957 ft | 231 kts | 89° |
| 2026-04-24 00:46 | 33.88280 | -118.31977 | 3771 ft | 232 kts | 82° |
| 2026-04-24 00:46 | 33.88500 | -118.30047 | 3528 ft | 233 kts | 82° |
| 2026-04-24 00:46 | 33.88721 | -118.28120 | 3265 ft | 230 kts | 82° |
| 2026-04-24 00:47 | 33.88941 | -118.26243 | 3008 ft | 230 kts | 81° |
| 2026-04-24 00:47 | 33.89172 | -118.24343 | 2759 ft | 229 kts | 82° |
| 2026-04-24 00:47 | 33.89405 | -118.22458 | 2498 ft | 228 kts | 81° |
| 2026-04-24 00:47 | 33.89825 | -118.20642 | 2191 ft | 226 kts | 57° |
| 2026-04-24 00:48 | 33.90910 | -118.19417 | 2044 ft | 204 kts | 19° |
| 2026-04-24 00:48 | 33.92215 | -118.19231 | 2020 ft | 182 kts | 343° |
| 2026-04-24 00:48 | 33.93222 | -118.19943 | 1996 ft | 161 kts | 300° |
| 2026-04-24 00:48 | 33.93689 | -118.21147 | 2026 ft | 163 kts | 291° |
| 2026-04-24 00:49 | 33.94160 | -118.22424 | 2012 ft | 167 kts | 291° |
| 2026-04-24 00:49 | 33.94638 | -118.23675 | 2018 ft | 164 kts | 291° |
| 2026-04-24 00:49 | 33.94850 | -118.24990 | 2003 ft | 158 kts | 266° |
| 2026-04-24 00:49 | 33.94799 | -118.26361 | 2008 ft | 169 kts | 269° |
| 2026-04-24 00:50 | 33.94789 | -118.27765 | 1819 ft | 169 kts | 266° |
| 2026-04-24 00:50 | 33.94680 | -118.29124 | 1589 ft | 156 kts | 262° |
| 2026-04-24 00:50 | 33.94548 | -118.30404 | 1375 ft | 152 kts | 262° |
| 2026-04-24 00:50 | 33.94426 | -118.31601 | 1214 ft | 138 kts | 264° |
| 2026-04-24 00:51 | 33.94311 | -118.32715 | 1033 ft | 131 kts | 262° |
| 2026-04-24 00:51 | 33.94196 | -118.33807 | 860 ft | 134 kts | 262° |
| 2026-04-24 00:51 | 33.94078 | -118.34918 | 683 ft | 135 kts | 263° |
| 2026-04-24 00:51 | 33.93962 | -118.36049 | 492 ft | 134 kts | 263° |
| 2026-04-24 00:52 | 33.93847 | -118.37125 | 323 ft | 130 kts | 265° |
| 2026-04-24 00:52 | 33.93746 | -118.38193 | 157 ft | 128 kts | 261° |
| 2026-04-24 00:52 | 33.93641 | -118.39208 | 97 ft | 110 kts | 263° |
| 2026-04-24 00:52 | 33.93576 | -118.39844 | 103 ft | 44 kts | 263° |
| 2026-04-24 00:53 | 33.93540 | -118.40057 | 102 ft | 23 kts | 253° |
| 2026-04-24 00:53 | 33.93472 | -118.40206 | 102 ft | 15 kts | 208° |
| 2026-04-24 00:53 | 33.93421 | -118.40128 | 101 ft | 16 kts | 79° |
| 2026-04-24 00:53 | 33.93438 | -118.39996 | 101 ft | 16 kts | 83° |
| 2026-04-24 00:54 | 33.93451 | -118.39863 | 100 ft | 17 kts | 83° |
| 2026-04-24 00:54 | 33.93464 | -118.39725 | 101 ft | 16 kts | 83° |
| 2026-04-24 00:54 | 33.93479 | -118.39590 | 101 ft | 16 kts | 82° |
| 2026-04-24 00:54 | 33.93493 | -118.39456 | 98 ft | 16 kts | 83° |
| 2026-04-24 00:55 | 33.93503 | -118.39363 | 98 ft | 7 kts | 83° |
| 2026-04-24 00:55 | 33.93509 | -118.39302 | 100 ft | 8 kts | 83° |
| 2026-04-24 00:55 | 33.93490 | -118.39243 | 100 ft | 8 kts | 136° |
| 2026-04-24 00:55 | 33.93438 | -118.39233 | 99 ft | 8 kts | 180° |
| 2026-04-24 00:56 | 33.93386 | -118.39233 | 98 ft | 7 kts | 180° |
| 2026-04-24 00:56 | 33.93361 | -118.39233 | 97 ft | 3 kts | 180° |
| 2026-04-24 00:56 | 33.93349 | -118.39233 | 100 ft | 0 kts | 180° |